sensor_id;sensor_type;location;lat;lon;timestamp;temperature;humidity
47520;DHT22;33252;48.122;11.538;2022-10-26T00:02:18;11.00;99.90
47520;DHT22;33252;48.122;11.538;2022-10-26T00:04:46;10.90;99.90
47520;DHT22;33252;48.122;11.538;2022-10-26T00:07:12;11.00;99.90
47520;DHT22;33252;48.122;11.538;2022-10-26T00:09:37;11.00;99.90
47520;DHT22;33252;48.122;11.538;2022-10-26T00:12:03;11.00;99.90
47520;DHT22;33252;48.122;11.538;2022-10-26T00:14:29;11.00;99.90
47520;DHT22;33252;48.122;11.538;2022-10-26T00:16:54;11.10;99.90
47520;DHT22;33252;48.122;11.538;2022-10-26T00:19:21;11.20;99.90
47520;DHT22;33252;48.122;11.538;2022-10-26T00:21:46;11.10;99.90
47520;DHT22;33252;48.122;11.538;2022-10-26T00:24:12;11.10;99.90
47520;DHT22;33252;48.122;11.538;2022-10-26T00:26:38;11.00;99.90
47520;DHT22;33252;48.122;11.538;2022-10-26T00:29:06;11.00;99.90
47520;DHT22;33252;48.122;11.538;2022-10-26T00:31:32;11.10;99.90
47520;DHT22;33252;48.122;11.538;2022-10-26T00:33:58;11.10;99.90
47520;DHT22;33252;48.122;11.538;2022-10-26T00:36:25;11.10;99.90
47520;DHT22;33252;48.122;11.538;2022-10-26T00:38:52;11.20;99.90
47520;DHT22;33252;48.122;11.538;2022-10-26T00:41:21;11.20;99.90
47520;DHT22;33252;48.122;11.538;2022-10-26T00:43:48;11.20;99.90
47520;DHT22;33252;48.122;11.538;2022-10-26T00:46:35;11.20;99.90
47520;DHT22;33252;48.122;11.538;2022-10-26T00:49:10;11.20;99.90
47520;DHT22;33252;48.122;11.538;2022-10-26T00:51:41;11.30;99.90
47520;DHT22;33252;48.122;11.538;2022-10-26T00:54:12;11.20;99.90
47520;DHT22;33252;48.122;11.538;2022-10-26T00:56:38;11.20;99.90
47520;DHT22;33252;48.122;11.538;2022-10-26T00:59:08;11.20;99.90
47520;DHT22;33252;48.122;11.538;2022-10-26T01:01:35;11.30;99.90
47520;DHT22;33252;48.122;11.538;2022-10-26T01:04:02;11.30;99.90
47520;DHT22;33252;48.122;11.538;2022-10-26T01:06:29;11.30;99.90
47520;DHT22;33252;48.122;11.538;2022-10-26T01:08:55;11.30;99.90
47520;DHT22;33252;48.122;11.538;2022-10-26T01:11:21;11.20;99.90
47520;DHT22;33252;48.122;11.538;2022-10-26T01:13:47;11.30;99.90
47520;DHT22;33252;48.122;11.538;2022-10-26T01:21:56;11.20;99.90
47520;DHT22;33252;48.122;11.538;2022-10-26T01:32:51;11.10;99.90
47520;DHT22;33252;48.122;11.538;2022-10-26T01:38:07;11.10;99.90
47520;DHT22;33252;48.122;11.538;2022-10-26T01:40:55;11.20;99.90
47520;DHT22;33252;48.122;11.538;2022-10-26T01:43:24;11.20;99.90
47520;DHT22;33252;48.122;11.538;2022-10-26T01:45:53;11.20;99.90
47520;DHT22;33252;48.122;11.538;2022-10-26T01:48:20;11.20;99.90
47520;DHT22;33252;48.122;11.538;2022-10-26T01:50:51;11.20;99.90
47520;DHT22;33252;48.122;11.538;2022-10-26T01:53:18;11.20;99.90
47520;DHT22;33252;48.122;11.538;2022-10-26T01:55:47;11.30;99.90
47520;DHT22;33252;48.122;11.538;2022-10-26T01:58:28;11.30;99.90
47520;DHT22;33252;48.122;11.538;2022-10-26T02:06:58;11.20;99.90
47520;DHT22;33252;48.122;11.538;2022-10-26T02:09:34;11.20;99.90
47520;DHT22;33252;48.122;11.538;2022-10-26T02:12:09;11.20;99.90
47520;DHT22;33252;48.122;11.538;2022-10-26T02:15:04;11.30;99.90
47520;DHT22;33252;48.122;11.538;2022-10-26T02:17:47;11.40;99.90
47520;DHT22;33252;48.122;11.538;2022-10-26T02:20:32;11.40;99.90
47520;DHT22;33252;48.122;11.538;2022-10-26T02:23:02;11.30;99.90
47520;DHT22;33252;48.122;11.538;2022-10-26T02:25:31;11.30;99.90
47520;DHT22;33252;48.122;11.538;2022-10-26T02:28:03;11.30;99.90
47520;DHT22;33252;48.122;11.538;2022-10-26T02:30:31;11.30;99.90
47520;DHT22;33252;48.122;11.538;2022-10-26T02:32:58;11.30;99.90
47520;DHT22;33252;48.122;11.538;2022-10-26T02:35:28;11.40;99.90
47520;DHT22;33252;48.122;11.538;2022-10-26T02:37:57;11.40;99.90
47520;DHT22;33252;48.122;11.538;2022-10-26T02:40:26;11.30;99.90
47520;DHT22;33252;48.122;11.538;2022-10-26T02:42:53;11.40;99.90
47520;DHT22;33252;48.122;11.538;2022-10-26T02:45:24;11.30;99.90
47520;DHT22;33252;48.122;11.538;2022-10-26T02:47:53;11.40;99.90
47520;DHT22;33252;48.122;11.538;2022-10-26T02:50:23;11.40;99.90
47520;DHT22;33252;48.122;11.538;2022-10-26T02:53:09;11.40;99.90
47520;DHT22;33252;48.122;11.538;2022-10-26T02:55:43;11.50;99.90
47520;DHT22;33252;48.122;11.538;2022-10-26T02:58:23;11.40;99.90
47520;DHT22;33252;48.122;11.538;2022-10-26T03:00:50;11.40;99.90
47520;DHT22;33252;48.122;11.538;2022-10-26T03:03:18;11.30;99.90
47520;DHT22;33252;48.122;11.538;2022-10-26T03:05:43;11.40;99.90
47520;DHT22;33252;48.122;11.538;2022-10-26T03:08:09;11.30;99.90
47520;DHT22;33252;48.122;11.538;2022-10-26T03:10:40;11.30;99.90
47520;DHT22;33252;48.122;11.538;2022-10-26T03:13:06;11.30;99.90
47520;DHT22;33252;48.122;11.538;2022-10-26T03:15:32;11.40;99.90
47520;DHT22;33252;48.122;11.538;2022-10-26T03:17:57;11.40;99.90
47520;DHT22;33252;48.122;11.538;2022-10-26T03:20:23;11.40;99.90
47520;DHT22;33252;48.122;11.538;2022-10-26T03:22:48;11.40;99.90
47520;DHT22;33252;48.122;11.538;2022-10-26T03:25:14;11.40;99.90
47520;DHT22;33252;48.122;11.538;2022-10-26T03:27:40;11.30;99.90
47520;DHT22;33252;48.122;11.538;2022-10-26T03:30:08;11.40;99.90
47520;DHT22;33252;48.122;11.538;2022-10-26T03:32:33;11.40;99.90
47520;DHT22;33252;48.122;11.538;2022-10-26T03:34:59;11.40;99.90
47520;DHT22;33252;48.122;11.538;2022-10-26T03:37:25;11.40;99.90
47520;DHT22;33252;48.122;11.538;2022-10-26T03:39:51;11.50;99.90
47520;DHT22;33252;48.122;11.538;2022-10-26T03:42:16;11.60;99.90
47520;DHT22;33252;48.122;11.538;2022-10-26T03:44:42;11.50;99.90
47520;DHT22;33252;48.122;11.538;2022-10-26T03:47:08;11.50;99.90
47520;DHT22;33252;48.122;11.538;2022-10-26T03:49:33;11.50;99.90
47520;DHT22;33252;48.122;11.538;2022-10-26T03:52:00;11.60;99.90
47520;DHT22;33252;48.122;11.538;2022-10-26T03:54:26;11.60;99.90
47520;DHT22;33252;48.122;11.538;2022-10-26T03:56:51;11.60;99.90
47520;DHT22;33252;48.122;11.538;2022-10-26T03:59:17;11.60;99.90
47520;DHT22;33252;48.122;11.538;2022-10-26T04:01:43;11.50;99.90
47520;DHT22;33252;48.122;11.538;2022-10-26T04:04:09;11.50;99.90
47520;DHT22;33252;48.122;11.538;2022-10-26T04:06:34;11.50;99.90
47520;DHT22;33252;48.122;11.538;2022-10-26T04:09:00;11.50;99.90
47520;DHT22;33252;48.122;11.538;2022-10-26T04:11:29;11.50;99.90
47520;DHT22;33252;48.122;11.538;2022-10-26T04:13:55;11.50;99.90
47520;DHT22;33252;48.122;11.538;2022-10-26T04:16:24;11.50;99.90
47520;DHT22;33252;48.122;11.538;2022-10-26T04:18:50;11.60;99.90
47520;DHT22;33252;48.122;11.538;2022-10-26T04:21:15;11.60;99.90
47520;DHT22;33252;48.122;11.538;2022-10-26T04:23:41;11.60;99.90
47520;DHT22;33252;48.122;11.538;2022-10-26T04:26:07;11.60;99.90
47520;DHT22;33252;48.122;11.538;2022-10-26T04:28:32;11.60;99.90
47520;DHT22;33252;48.122;11.538;2022-10-26T04:30:58;11.60;99.90
47520;DHT22;33252;48.122;11.538;2022-10-26T04:33:24;11.50;99.90
47520;DHT22;33252;48.122;11.538;2022-10-26T04:35:49;11.50;99.90
47520;DHT22;33252;48.122;11.538;2022-10-26T04:38:15;11.60;99.90
47520;DHT22;33252;48.122;11.538;2022-10-26T04:40:41;11.60;99.90
47520;DHT22;33252;48.122;11.538;2022-10-26T04:43:06;11.60;99.90
47520;DHT22;33252;48.122;11.538;2022-10-26T04:45:32;11.60;99.90
47520;DHT22;33252;48.122;11.538;2022-10-26T04:48:11;11.50;99.90
47520;DHT22;33252;48.122;11.538;2022-10-26T04:50:38;11.50;99.90
47520;DHT22;33252;48.122;11.538;2022-10-26T04:53:05;11.50;99.90
47520;DHT22;33252;48.122;11.538;2022-10-26T04:55:31;11.60;99.90
47520;DHT22;33252;48.122;11.538;2022-10-26T04:57:56;11.60;99.90
47520;DHT22;33252;48.122;11.538;2022-10-26T05:00:22;11.70;99.90
47520;DHT22;33252;48.122;11.538;2022-10-26T05:02:48;11.70;99.90
47520;DHT22;33252;48.122;11.538;2022-10-26T05:05:14;11.80;99.90
47520;DHT22;33252;48.122;11.538;2022-10-26T05:07:39;11.80;99.90
47520;DHT22;33252;48.122;11.538;2022-10-26T05:10:06;11.80;99.90
47520;DHT22;33252;48.122;11.538;2022-10-26T05:12:31;11.70;99.90
47520;DHT22;33252;48.122;11.538;2022-10-26T05:14:57;11.80;99.90
47520;DHT22;33252;48.122;11.538;2022-10-26T05:17:27;11.70;99.90
47520;DHT22;33252;48.122;11.538;2022-10-26T05:19:53;11.80;99.90
47520;DHT22;33252;48.122;11.538;2022-10-26T05:22:23;11.80;99.90
47520;DHT22;33252;48.122;11.538;2022-10-26T05:24:49;11.70;99.90
47520;DHT22;33252;48.122;11.538;2022-10-26T05:27:15;11.80;99.90
47520;DHT22;33252;48.122;11.538;2022-10-26T05:29:40;11.80;99.90
47520;DHT22;33252;48.122;11.538;2022-10-26T05:32:06;11.80;99.90
47520;DHT22;33252;48.122;11.538;2022-10-26T05:34:31;11.80;99.90
47520;DHT22;33252;48.122;11.538;2022-10-26T05:36:57;11.80;99.90
47520;DHT22;33252;48.122;11.538;2022-10-26T05:39:23;11.70;99.90
47520;DHT22;33252;48.122;11.538;2022-10-26T05:41:48;11.80;99.90
47520;DHT22;33252;48.122;11.538;2022-10-26T05:44:14;11.80;99.90
47520;DHT22;33252;48.122;11.538;2022-10-26T05:46:39;11.90;99.90
47520;DHT22;33252;48.122;11.538;2022-10-26T05:49:05;11.90;99.90
47520;DHT22;33252;48.122;11.538;2022-10-26T05:51:33;11.90;99.90
47520;DHT22;33252;48.122;11.538;2022-10-26T05:54:02;11.90;99.90
47520;DHT22;33252;48.122;11.538;2022-10-26T05:56:36;11.90;99.90
47520;DHT22;33252;48.122;11.538;2022-10-26T05:59:03;11.80;99.90
47520;DHT22;33252;48.122;11.538;2022-10-26T06:02:03;11.90;99.90
47520;DHT22;33252;48.122;11.538;2022-10-26T06:04:40;11.80;99.90
47520;DHT22;33252;48.122;11.538;2022-10-26T06:07:12;11.90;99.90
47520;DHT22;33252;48.122;11.538;2022-10-26T06:09:39;11.90;99.90
47520;DHT22;33252;48.122;11.538;2022-10-26T06:12:06;11.90;99.90
47520;DHT22;33252;48.122;11.538;2022-10-26T06:14:33;12.00;99.90
47520;DHT22;33252;48.122;11.538;2022-10-26T06:22:41;11.90;99.90
47520;DHT22;33252;48.122;11.538;2022-10-26T06:30:20;12.00;99.90
47520;DHT22;33252;48.122;11.538;2022-10-26T06:32:48;11.90;99.90
47520;DHT22;33252;48.122;11.538;2022-10-26T06:37:54;12.00;99.90
47520;DHT22;33252;48.122;11.538;2022-10-26T06:40:22;12.00;99.90
47520;DHT22;33252;48.122;11.538;2022-10-26T06:42:48;12.00;99.90
47520;DHT22;33252;48.122;11.538;2022-10-26T06:45:15;12.00;99.90
47520;DHT22;33252;48.122;11.538;2022-10-26T06:47:50;12.10;99.90
47520;DHT22;33252;48.122;11.538;2022-10-26T06:55:51;12.20;99.90
47520;DHT22;33252;48.122;11.538;2022-10-26T06:58:22;12.30;99.90
47520;DHT22;33252;48.122;11.538;2022-10-26T07:00:52;12.30;99.90
47520;DHT22;33252;48.122;11.538;2022-10-26T07:03:18;12.30;99.90
47520;DHT22;33252;48.122;11.538;2022-10-26T07:05:44;12.30;99.90
47520;DHT22;33252;48.122;11.538;2022-10-26T07:08:10;12.40;99.90
47520;DHT22;33252;48.122;11.538;2022-10-26T07:10:37;12.40;99.90
47520;DHT22;33252;48.122;11.538;2022-10-26T07:13:07;12.40;99.90
47520;DHT22;33252;48.122;11.538;2022-10-26T07:15:35;12.50;99.90
47520;DHT22;33252;48.122;11.538;2022-10-26T07:18:03;12.50;99.90
47520;DHT22;33252;48.122;11.538;2022-10-26T07:20:39;12.50;99.90
47520;DHT22;33252;48.122;11.538;2022-10-26T07:23:06;12.60;99.90
47520;DHT22;33252;48.122;11.538;2022-10-26T07:25:32;12.60;99.90
47520;DHT22;33252;48.122;11.538;2022-10-26T07:27:59;12.60;99.90
47520;DHT22;33252;48.122;11.538;2022-10-26T07:30:28;12.60;99.90
47520;DHT22;33252;48.122;11.538;2022-10-26T07:33:02;12.60;99.90
47520;DHT22;33252;48.122;11.538;2022-10-26T07:35:28;12.60;99.90
47520;DHT22;33252;48.122;11.538;2022-10-26T07:37:57;12.60;99.90
47520;DHT22;33252;48.122;11.538;2022-10-26T07:40:24;12.70;99.90
47520;DHT22;33252;48.122;11.538;2022-10-26T07:42:50;12.70;99.90
47520;DHT22;33252;48.122;11.538;2022-10-26T07:45:17;12.80;99.90
47520;DHT22;33252;48.122;11.538;2022-10-26T07:47:43;12.80;99.90
47520;DHT22;33252;48.122;11.538;2022-10-26T07:50:10;12.80;99.90
47520;DHT22;33252;48.122;11.538;2022-10-26T07:52:36;12.90;99.90
47520;DHT22;33252;48.122;11.538;2022-10-26T07:55:03;12.90;99.90
47520;DHT22;33252;48.122;11.538;2022-10-26T07:57:29;12.90;99.90
47520;DHT22;33252;48.122;11.538;2022-10-26T07:59:55;12.90;99.90
47520;DHT22;33252;48.122;11.538;2022-10-26T08:02:21;12.90;99.90
47520;DHT22;33252;48.122;11.538;2022-10-26T08:04:46;13.00;99.90
47520;DHT22;33252;48.122;11.538;2022-10-26T08:07:12;13.00;99.90
47520;DHT22;33252;48.122;11.538;2022-10-26T08:09:37;13.00;99.90
47520;DHT22;33252;48.122;11.538;2022-10-26T08:12:03;13.00;99.90
47520;DHT22;33252;48.122;11.538;2022-10-26T08:14:30;13.10;99.90
47520;DHT22;33252;48.122;11.538;2022-10-26T08:16:56;13.10;99.90
47520;DHT22;33252;48.122;11.538;2022-10-26T08:19:21;13.20;99.90
47520;DHT22;33252;48.122;11.538;2022-10-26T08:21:47;13.30;99.90
47520;DHT22;33252;48.122;11.538;2022-10-26T08:24:13;13.30;99.90
47520;DHT22;33252;48.122;11.538;2022-10-26T08:26:38;13.40;99.90
47520;DHT22;33252;48.122;11.538;2022-10-26T08:29:04;13.40;99.90
47520;DHT22;33252;48.122;11.538;2022-10-26T08:31:29;13.50;99.90
47520;DHT22;33252;48.122;11.538;2022-10-26T08:33:55;13.60;99.90
47520;DHT22;33252;48.122;11.538;2022-10-26T08:36:23;13.80;99.90
47520;DHT22;33252;48.122;11.538;2022-10-26T08:38:50;13.90;99.90
47520;DHT22;33252;48.122;11.538;2022-10-26T08:41:18;14.00;99.90
47520;DHT22;33252;48.122;11.538;2022-10-26T08:43:57;14.10;99.90
47520;DHT22;33252;48.122;11.538;2022-10-26T08:46:33;14.20;99.90
47520;DHT22;33252;48.122;11.538;2022-10-26T08:49:30;14.30;99.90
47520;DHT22;33252;48.122;11.538;2022-10-26T08:51:59;14.50;99.90
47520;DHT22;33252;48.122;11.538;2022-10-26T08:54:38;14.50;99.90
47520;DHT22;33252;48.122;11.538;2022-10-26T08:57:30;14.70;99.90
47520;DHT22;33252;48.122;11.538;2022-10-26T09:00:02;14.90;99.90
47520;DHT22;33252;48.122;11.538;2022-10-26T09:02:28;15.10;99.90
47520;DHT22;33252;48.122;11.538;2022-10-26T09:04:56;15.20;99.90
47520;DHT22;33252;48.122;11.538;2022-10-26T09:18:27;15.90;99.90
47520;DHT22;33252;48.122;11.538;2022-10-26T09:26:35;16.20;99.90
47520;DHT22;33252;48.122;11.538;2022-10-26T09:29:05;16.30;99.90
47520;DHT22;33252;48.122;11.538;2022-10-26T09:31:40;16.50;99.90
47520;DHT22;33252;48.122;11.538;2022-10-26T09:34:06;16.60;99.90
47520;DHT22;33252;48.122;11.538;2022-10-26T09:36:36;16.70;99.90
47520;DHT22;33252;48.122;11.538;2022-10-26T09:39:16;16.60;99.90
47520;DHT22;33252;48.122;11.538;2022-10-26T09:41:51;16.80;99.90
47520;DHT22;33252;48.122;11.538;2022-10-26T09:44:27;16.90;99.90
47520;DHT22;33252;48.122;11.538;2022-10-26T09:47:20;17.00;99.90
47520;DHT22;33252;48.122;11.538;2022-10-26T09:49:55;17.00;99.90
47520;DHT22;33252;48.122;11.538;2022-10-26T09:52:22;17.10;99.90
47520;DHT22;33252;48.122;11.538;2022-10-26T09:54:48;17.20;99.90
47520;DHT22;33252;48.122;11.538;2022-10-26T09:57:15;17.50;99.90
47520;DHT22;33252;48.122;11.538;2022-10-26T09:59:44;17.50;99.90
47520;DHT22;33252;48.122;11.538;2022-10-26T10:02:32;17.40;99.90
47520;DHT22;33252;48.122;11.538;2022-10-26T10:04:58;17.30;99.90
47520;DHT22;33252;48.122;11.538;2022-10-26T10:07:24;17.40;99.90
47520;DHT22;33252;48.122;11.538;2022-10-26T10:10:21;17.40;99.90
47520;DHT22;33252;48.122;11.538;2022-10-26T10:12:49;17.40;99.90
47520;DHT22;33252;48.122;11.538;2022-10-26T10:15:26;17.40;99.90
47520;DHT22;33252;48.122;11.538;2022-10-26T10:17:53;17.50;99.70
47520;DHT22;33252;48.122;11.538;2022-10-26T10:20:32;17.40;99.90
47520;DHT22;33252;48.122;11.538;2022-10-26T10:23:02;17.50;99.90
47520;DHT22;33252;48.122;11.538;2022-10-26T10:25:37;17.50;99.40
47520;DHT22;33252;48.122;11.538;2022-10-26T10:28:24;17.60;99.00
47520;DHT22;33252;48.122;11.538;2022-10-26T10:30:55;17.60;98.90
47520;DHT22;33252;48.122;11.538;2022-10-26T10:33:35;17.60;99.70
47520;DHT22;33252;48.122;11.538;2022-10-26T10:36:03;17.50;99.40
47520;DHT22;33252;48.122;11.538;2022-10-26T10:38:39;17.50;99.60
47520;DHT22;33252;48.122;11.538;2022-10-26T10:41:05;17.60;99.80
47520;DHT22;33252;48.122;11.538;2022-10-26T10:43:46;17.80;98.90
47520;DHT22;33252;48.122;11.538;2022-10-26T10:46:16;18.00;98.70
47520;DHT22;33252;48.122;11.538;2022-10-26T10:48:46;18.10;98.00
47520;DHT22;33252;48.122;11.538;2022-10-26T10:51:18;18.10;98.20
47520;DHT22;33252;48.122;11.538;2022-10-26T10:53:53;18.10;98.30
47520;DHT22;33252;48.122;11.538;2022-10-26T10:56:40;18.00;98.90
47520;DHT22;33252;48.122;11.538;2022-10-26T11:07:17;18.00;98.00
47520;DHT22;33252;48.122;11.538;2022-10-26T11:09:47;18.00;97.80
47520;DHT22;33252;48.122;11.538;2022-10-26T11:12:36;18.00;98.00
47520;DHT22;33252;48.122;11.538;2022-10-26T11:15:27;17.90;98.30
47520;DHT22;33252;48.122;11.538;2022-10-26T11:18:15;18.00;99.00
47520;DHT22;33252;48.122;11.538;2022-10-26T11:20:54;18.10;97.70
47520;DHT22;33252;48.122;11.538;2022-10-26T11:23:48;18.10;97.70
47520;DHT22;33252;48.122;11.538;2022-10-26T11:26:16;18.10;97.90
47520;DHT22;33252;48.122;11.538;2022-10-26T11:28:52;18.00;98.50
47520;DHT22;33252;48.122;11.538;2022-10-26T11:31:32;18.00;98.60
47520;DHT22;33252;48.122;11.538;2022-10-26T11:34:33;18.00;99.20
47520;DHT22;33252;48.122;11.538;2022-10-26T11:37:21;18.10;98.20
47520;DHT22;33252;48.122;11.538;2022-10-26T11:40:01;18.10;98.20
47520;DHT22;33252;48.122;11.538;2022-10-26T11:45:28;18.10;98.00
47520;DHT22;33252;48.122;11.538;2022-10-26T11:48:20;18.10;98.30
47520;DHT22;33252;48.122;11.538;2022-10-26T11:50:53;18.10;98.50
47520;DHT22;33252;48.122;11.538;2022-10-26T11:53:20;18.10;98.20
47520;DHT22;33252;48.122;11.538;2022-10-26T11:55:51;18.20;98.40
47520;DHT22;33252;48.122;11.538;2022-10-26T11:58:17;18.10;98.80
47520;DHT22;33252;48.122;11.538;2022-10-26T12:00:57;18.10;98.60
47520;DHT22;33252;48.122;11.538;2022-10-26T12:03:31;18.20;98.80
47520;DHT22;33252;48.122;11.538;2022-10-26T12:05:57;18.00;98.90
47520;DHT22;33252;48.122;11.538;2022-10-26T12:08:26;17.90;99.20
47520;DHT22;33252;48.122;11.538;2022-10-26T12:22:15;17.60;99.90
47520;DHT22;33252;48.122;11.538;2022-10-26T12:24:46;17.80;99.50
47520;DHT22;33252;48.122;11.538;2022-10-26T12:35:32;18.00;99.20
47520;DHT22;33252;48.122;11.538;2022-10-26T12:38:00;18.10;99.10
47520;DHT22;33252;48.122;11.538;2022-10-26T12:45:40;18.40;98.80
47520;DHT22;33252;48.122;11.538;2022-10-26T12:48:23;18.50;98.60
47520;DHT22;33252;48.122;11.538;2022-10-26T12:50:50;18.70;98.00
47520;DHT22;33252;48.122;11.538;2022-10-26T12:53:20;18.80;98.00
47520;DHT22;33252;48.122;11.538;2022-10-26T13:08:46;19.30;96.90
47520;DHT22;33252;48.122;11.538;2022-10-26T13:11:31;19.60;96.30
47520;DHT22;33252;48.122;11.538;2022-10-26T13:14:04;19.40;96.20
47520;DHT22;33252;48.122;11.538;2022-10-26T13:16:30;19.10;96.80
47520;DHT22;33252;48.122;11.538;2022-10-26T13:18:57;19.10;96.80
47520;DHT22;33252;48.122;11.538;2022-10-26T13:21:24;19.10;96.50
47520;DHT22;33252;48.122;11.538;2022-10-26T13:26:25;18.90;96.10
47520;DHT22;33252;48.122;11.538;2022-10-26T13:28:55;18.90;96.60
47520;DHT22;33252;48.122;11.538;2022-10-26T13:34:02;18.80;96.40
47520;DHT22;33252;48.122;11.538;2022-10-26T13:39:17;18.80;97.30
47520;DHT22;33252;48.122;11.538;2022-10-26T13:41:46;18.60;97.40
47520;DHT22;33252;48.122;11.538;2022-10-26T13:44:24;18.70;97.30
47520;DHT22;33252;48.122;11.538;2022-10-26T13:46:55;18.60;97.50
47520;DHT22;33252;48.122;11.538;2022-10-26T13:49:27;18.60;97.40
47520;DHT22;33252;48.122;11.538;2022-10-26T13:51:55;18.60;97.40
47520;DHT22;33252;48.122;11.538;2022-10-26T13:54:42;18.60;97.20
47520;DHT22;33252;48.122;11.538;2022-10-26T13:57:42;18.70;97.20
47520;DHT22;33252;48.122;11.538;2022-10-26T14:00:21;18.70;97.10
47520;DHT22;33252;48.122;11.538;2022-10-26T14:02:47;18.60;97.40
47520;DHT22;33252;48.122;11.538;2022-10-26T14:05:16;18.50;97.70
47520;DHT22;33252;48.122;11.538;2022-10-26T14:07:49;18.50;97.70
47520;DHT22;33252;48.122;11.538;2022-10-26T14:12:54;18.50;97.80
47520;DHT22;33252;48.122;11.538;2022-10-26T14:15:26;18.50;97.80
47520;DHT22;33252;48.122;11.538;2022-10-26T14:17:53;18.50;97.70
47520;DHT22;33252;48.122;11.538;2022-10-26T14:20:22;18.60;98.20
47520;DHT22;33252;48.122;11.538;2022-10-26T14:22:48;18.60;97.90
47520;DHT22;33252;48.122;11.538;2022-10-26T14:25:28;18.50;97.90
47520;DHT22;33252;48.122;11.538;2022-10-26T14:27:56;18.40;98.50
47520;DHT22;33252;48.122;11.538;2022-10-26T14:30:23;18.40;98.10
47520;DHT22;33252;48.122;11.538;2022-10-26T14:32:50;18.40;98.30
47520;DHT22;33252;48.122;11.538;2022-10-26T14:35:17;18.30;98.30
47520;DHT22;33252;48.122;11.538;2022-10-26T14:40:17;18.20;98.70
47520;DHT22;33252;48.122;11.538;2022-10-26T14:42:44;18.20;98.60
47520;DHT22;33252;48.122;11.538;2022-10-26T14:45:34;18.20;98.70
47520;DHT22;33252;48.122;11.538;2022-10-26T14:48:03;18.10;98.80
47520;DHT22;33252;48.122;11.538;2022-10-26T14:50:30;18.10;98.90
47520;DHT22;33252;48.122;11.538;2022-10-26T14:53:13;18.10;98.90
47520;DHT22;33252;48.122;11.538;2022-10-26T14:55:48;18.00;99.40
47520;DHT22;33252;48.122;11.538;2022-10-26T14:58:29;17.90;99.40
47520;DHT22;33252;48.122;11.538;2022-10-26T15:03:47;18.00;99.20
47520;DHT22;33252;48.122;11.538;2022-10-26T15:06:33;18.00;99.40
47520;DHT22;33252;48.122;11.538;2022-10-26T15:09:01;17.90;99.50
47520;DHT22;33252;48.122;11.538;2022-10-26T15:11:30;17.80;99.90
47520;DHT22;33252;48.122;11.538;2022-10-26T15:13:57;17.70;99.90
47520;DHT22;33252;48.122;11.538;2022-10-26T15:16:25;17.70;99.90
47520;DHT22;33252;48.122;11.538;2022-10-26T15:18:58;17.60;99.90
47520;DHT22;33252;48.122;11.538;2022-10-26T15:23:51;17.50;99.90
47520;DHT22;33252;48.122;11.538;2022-10-26T15:26:18;17.60;99.90
47520;DHT22;33252;48.122;11.538;2022-10-26T15:28:44;17.50;99.90
47520;DHT22;33252;48.122;11.538;2022-10-26T15:36:25;17.40;99.90
47520;DHT22;33252;48.122;11.538;2022-10-26T15:38:52;17.40;99.90
47520;DHT22;33252;48.122;11.538;2022-10-26T15:41:22;17.30;99.90
47520;DHT22;33252;48.122;11.538;2022-10-26T15:43:49;17.20;99.90
47520;DHT22;33252;48.122;11.538;2022-10-26T15:46:15;17.10;99.90
47520;DHT22;33252;48.122;11.538;2022-10-26T15:48:41;17.00;99.90
47520;DHT22;33252;48.122;11.538;2022-10-26T15:51:12;16.90;99.90
47520;DHT22;33252;48.122;11.538;2022-10-26T15:53:41;16.80;99.90
47520;DHT22;33252;48.122;11.538;2022-10-26T15:56:15;16.70;99.90
47520;DHT22;33252;48.122;11.538;2022-10-26T15:58:41;16.80;99.90
47520;DHT22;33252;48.122;11.538;2022-10-26T16:01:07;16.80;99.90
47520;DHT22;33252;48.122;11.538;2022-10-26T16:03:34;16.70;99.90
47520;DHT22;33252;48.122;11.538;2022-10-26T16:06:00;16.60;99.90
47520;DHT22;33252;48.122;11.538;2022-10-26T16:08:29;16.60;99.90
47520;DHT22;33252;48.122;11.538;2022-10-26T16:10:55;16.60;99.90
47520;DHT22;33252;48.122;11.538;2022-10-26T16:13:21;16.60;99.90
47520;DHT22;33252;48.122;11.538;2022-10-26T16:15:46;16.50;99.90
47520;DHT22;33252;48.122;11.538;2022-10-26T16:18:13;16.40;99.90
47520;DHT22;33252;48.122;11.538;2022-10-26T16:20:39;16.40;99.90
47520;DHT22;33252;48.122;11.538;2022-10-26T16:23:05;16.30;99.90
47520;DHT22;33252;48.122;11.538;2022-10-26T16:25:33;16.30;99.90
47520;DHT22;33252;48.122;11.538;2022-10-26T16:27:59;16.30;99.90
47520;DHT22;33252;48.122;11.538;2022-10-26T16:30:27;16.30;99.90
47520;DHT22;33252;48.122;11.538;2022-10-26T16:32:54;16.30;99.90
47520;DHT22;33252;48.122;11.538;2022-10-26T16:35:20;16.20;99.90
47520;DHT22;33252;48.122;11.538;2022-10-26T16:37:45;16.20;99.90
47520;DHT22;33252;48.122;11.538;2022-10-26T16:40:11;16.10;99.90
47520;DHT22;33252;48.122;11.538;2022-10-26T16:42:37;16.10;99.90
47520;DHT22;33252;48.122;11.538;2022-10-26T16:45:11;16.10;99.90
47520;DHT22;33252;48.122;11.538;2022-10-26T16:47:38;16.10;99.90
47520;DHT22;33252;48.122;11.538;2022-10-26T16:50:06;16.10;99.90
47520;DHT22;33252;48.122;11.538;2022-10-26T16:52:33;16.00;99.90
47520;DHT22;33252;48.122;11.538;2022-10-26T16:54:59;16.00;99.90
47520;DHT22;33252;48.122;11.538;2022-10-26T16:57:25;16.00;99.90
47520;DHT22;33252;48.122;11.538;2022-10-26T16:59:50;16.00;99.90
47520;DHT22;33252;48.122;11.538;2022-10-26T17:02:16;16.00;99.90
47520;DHT22;33252;48.122;11.538;2022-10-26T17:04:42;16.00;99.90
47520;DHT22;33252;48.122;11.538;2022-10-26T17:07:09;15.90;99.90
47520;DHT22;33252;48.122;11.538;2022-10-26T17:09:34;16.00;99.90
47520;DHT22;33252;48.122;11.538;2022-10-26T17:12:00;15.90;99.90
47520;DHT22;33252;48.122;11.538;2022-10-26T17:14:26;15.90;99.90
47520;DHT22;33252;48.122;11.538;2022-10-26T17:16:52;15.90;99.90
47520;DHT22;33252;48.122;11.538;2022-10-26T17:19:17;16.00;99.90
47520;DHT22;33252;48.122;11.538;2022-10-26T17:21:43;15.90;99.90
47520;DHT22;33252;48.122;11.538;2022-10-26T17:24:10;15.90;99.90
47520;DHT22;33252;48.122;11.538;2022-10-26T17:26:36;15.90;99.90
47520;DHT22;33252;48.122;11.538;2022-10-26T17:29:02;15.90;99.90
47520;DHT22;33252;48.122;11.538;2022-10-26T17:31:27;15.80;99.90
47520;DHT22;33252;48.122;11.538;2022-10-26T17:33:55;15.80;99.90
47520;DHT22;33252;48.122;11.538;2022-10-26T17:36:22;15.80;99.90
47520;DHT22;33252;48.122;11.538;2022-10-26T17:38:49;15.70;99.90
47520;DHT22;33252;48.122;11.538;2022-10-26T17:41:16;15.70;99.90
47520;DHT22;33252;48.122;11.538;2022-10-26T17:43:43;15.70;99.90